createdAt,value
2017-06-20T00:01:54.155Z,26.20
2017-06-20T00:04:22.439Z,26.20
2017-06-20T00:06:50.677Z,26.20
2017-06-20T00:09:18.923Z,26.10
2017-06-20T00:11:47.160Z,25.90
2017-06-20T00:14:15.667Z,25.70
2017-06-20T00:16:44.161Z,25.90
2017-06-20T00:19:12.400Z,25.90
2017-06-20T00:21:40.646Z,25.90
2017-06-20T00:24:08.930Z,25.90
2017-06-20T00:26:37.163Z,25.80
2017-06-20T00:29:05.399Z,25.80
2017-06-20T00:31:33.672Z,25.70
2017-06-20T00:34:01.968Z,25.70
2017-06-20T00:36:30.197Z,25.80
2017-06-20T00:38:58.448Z,25.90
2017-06-20T00:41:26.676Z,25.80
2017-06-20T00:43:54.911Z,25.80
2017-06-20T00:46:23.187Z,25.80
2017-06-20T00:48:51.826Z,25.80
2017-06-20T00:51:20.059Z,25.80
2017-06-20T00:53:48.333Z,25.80
2017-06-20T00:56:16.569Z,25.70
2017-06-20T00:58:44.806Z,25.70
2017-06-20T01:01:13.077Z,25.50
2017-06-20T01:03:41.595Z,25.60
2017-06-20T01:06:10.079Z,25.50
2017-06-20T01:08:38.392Z,25.50
2017-06-20T01:11:06.640Z,25.40
2017-06-20T01:13:34.873Z,25.40
2017-06-20T01:16:03.145Z,25.40
2017-06-20T01:18:31.383Z,25.40
2017-06-20T01:21:00.013Z,25.30
2017-06-20T01:23:28.278Z,25.30
2017-06-20T01:25:57.380Z,25.40
2017-06-20T01:28:25.839Z,25.30
2017-06-20T01:30:54.113Z,25.40
2017-06-20T01:33:22.338Z,25.60
2017-06-20T01:35:50.572Z,25.50
2017-06-20T01:38:18.863Z,25.60
2017-06-20T01:40:47.100Z,25.40
2017-06-20T01:43:15.738Z,25.40
2017-06-20T01:45:44.015Z,25.40
2017-06-20T01:48:12.243Z,25.40
2017-06-20T01:50:40.482Z,25.40
2017-06-20T01:53:08.748Z,25.40
2017-06-20T01:55:37.237Z,25.40
2017-06-20T01:58:05.721Z,25.50
2017-06-20T02:00:33.987Z,25.50
2017-06-20T02:03:02.224Z,25.50
2017-06-20T02:05:30.477Z,25.60
2017-06-20T02:07:58.744Z,25.60
2017-06-20T02:10:27.371Z,25.50
2017-06-20T02:12:55.607Z,25.60
2017-06-20T02:15:24.255Z,25.50
2017-06-20T02:17:52.487Z,25.50
2017-06-20T02:20:20.715Z,25.50
2017-06-20T02:22:49.297Z,25.50
2017-06-20T02:25:17.551Z,25.50
2017-06-20T02:27:45.792Z,25.50
2017-06-20T02:30:14.061Z,25.30
2017-06-20T02:32:42.292Z,25.20
2017-06-20T02:35:10.525Z,25.10
2017-06-20T02:37:39.008Z,25.10
2017-06-20T02:40:07.236Z,25.00
2017-06-20T02:42:35.477Z,25.00
2017-06-20T02:45:03.768Z,24.80
2017-06-20T02:47:31.995Z,24.60
2017-06-20T02:50:00.565Z,24.60
2017-06-20T02:52:29.008Z,24.60
2017-06-20T02:54:57.244Z,24.50
2017-06-20T02:57:25.583Z,24.50
2017-06-20T02:59:53.856Z,24.50
2017-06-20T03:02:22.087Z,24.50
2017-06-20T03:04:50.316Z,24.60
2017-06-20T03:07:18.992Z,24.60
2017-06-20T03:09:47.222Z,24.60
2017-06-20T03:12:15.498Z,24.70
2017-06-20T03:14:43.798Z,24.80
2017-06-20T03:17:12.025Z,24.70
2017-06-20T03:19:40.255Z,24.70
2017-06-20T03:22:08.503Z,24.60
2017-06-20T03:24:37.015Z,24.60
2017-06-20T03:27:05.247Z,24.70
2017-06-20T03:29:33.877Z,24.60
2017-06-20T03:32:02.116Z,24.40
2017-06-20T03:34:30.343Z,24.30
2017-06-20T03:36:59.320Z,24.30
2017-06-20T03:39:27.555Z,24.30
2017-06-20T03:41:55.783Z,24.30
2017-06-20T03:44:24.042Z,24.30
2017-06-20T03:46:52.283Z,24.30
2017-06-20T03:49:20.534Z,24.20
2017-06-20T03:51:49.188Z,24.10
2017-06-20T03:54:17.427Z,24.10
2017-06-20T03:56:45.668Z,24.00
2017-06-20T03:59:13.942Z,24.10
2017-06-20T04:01:42.583Z,24.20
2017-06-20T04:04:10.820Z,24.20
2017-06-20T04:06:39.197Z,24.20
2017-06-20T04:09:07.437Z,24.40
2017-06-20T04:11:35.660Z,24.50
2017-06-20T04:14:04.192Z,24.60
2017-06-20T04:16:32.419Z,24.70
2017-06-20T04:19:00.657Z,24.40
2017-06-20T04:21:49.068Z,24.60
2017-06-20T04:24:17.300Z,24.50
2017-06-20T04:26:45.536Z,24.60
2017-06-20T04:29:13.799Z,24.60
2017-06-20T04:31:42.071Z,24.60
2017-06-20T04:34:10.325Z,24.70
2017-06-20T04:36:38.617Z,24.90
2017-06-20T04:39:06.857Z,25.00
2017-06-20T04:41:35.113Z,24.70
2017-06-20T04:44:03.785Z,24.90
2017-06-20T04:46:32.415Z,25.00
2017-06-20T04:49:00.661Z,25.00
2017-06-20T04:51:28.994Z,24.90
2017-06-20T04:53:57.223Z,24.90
2017-06-20T04:56:25.467Z,25.10
2017-06-20T04:58:53.756Z,25.10
2017-06-20T05:01:22.413Z,25.00
2017-06-20T05:03:50.644Z,25.00
2017-06-20T05:06:18.925Z,25.20
2017-06-20T05:08:47.163Z,25.40
2017-06-20T05:11:15.801Z,25.40
2017-06-20T05:13:44.079Z,25.40
2017-06-20T05:16:12.325Z,25.20
2017-06-20T05:18:40.571Z,25.40
2017-06-20T05:21:08.899Z,25.70
2017-06-20T05:23:37.156Z,26.00
2017-06-20T05:26:05.376Z,26.30
2017-06-20T05:28:33.659Z,26.40
2017-06-20T05:31:02.140Z,26.60
2017-06-20T05:33:30.440Z,26.80
2017-06-20T05:35:59.112Z,26.90
2017-06-20T05:38:27.743Z,27.00
2017-06-20T05:40:56.054Z,27.00
2017-06-20T05:43:24.309Z,27.10
2017-06-20T05:45:52.545Z,27.10
2017-06-20T05:48:20.792Z,27.00
2017-06-20T05:50:49.156Z,27.10
2017-06-20T05:53:18.191Z,27.20
2017-06-20T05:55:46.829Z,27.20
2017-06-20T05:58:15.262Z,27.20
2017-06-20T06:00:43.504Z,27.20
2017-06-20T06:03:11.768Z,27.20
2017-06-20T06:05:40.036Z,27.20
2017-06-20T06:08:08.316Z,27.40
2017-06-20T06:10:36.695Z,27.50
2017-06-20T06:13:04.961Z,27.60
2017-06-20T06:15:33.209Z,27.70
2017-06-20T06:18:01.454Z,27.70
2017-06-20T06:20:30.288Z,27.60
2017-06-20T06:22:58.691Z,27.60
2017-06-20T06:25:26.980Z,27.40
2017-06-20T06:27:55.770Z,27.30
2017-06-20T06:30:23.991Z,27.20
2017-06-20T06:32:52.228Z,27.30
2017-06-20T06:35:20.923Z,27.50
2017-06-20T06:37:49.173Z,27.50
2017-06-20T06:40:17.406Z,27.70
2017-06-20T06:42:45.827Z,28.00
2017-06-20T06:45:14.088Z,28.00
2017-06-20T06:47:42.440Z,28.20
2017-06-20T06:50:10.718Z,28.40
2017-06-20T06:52:38.952Z,28.70
2017-06-20T06:55:07.643Z,29.20
2017-06-20T06:57:36.315Z,29.10
2017-06-20T07:00:04.577Z,29.20
2017-06-20T07:02:32.891Z,28.60
2017-06-20T07:05:01.279Z,28.40
2017-06-20T07:07:29.603Z,28.30
2017-06-20T07:09:57.878Z,28.50
2017-06-20T07:12:26.123Z,28.60
2017-06-20T07:14:54.434Z,28.80
2017-06-20T07:17:22.692Z,28.80
2017-06-20T07:19:51.065Z,28.60
2017-06-20T07:22:19.318Z,28.40
2017-06-20T07:24:47.639Z,28.80
2017-06-20T07:27:16.094Z,28.80
2017-06-20T07:29:44.466Z,28.80
2017-06-20T07:32:12.704Z,29.10
2017-06-20T07:34:40.982Z,29.20
2017-06-20T07:37:09.224Z,29.10
2017-06-20T07:39:37.475Z,28.90
2017-06-20T07:42:07.628Z,29.30
2017-06-20T07:44:35.893Z,29.80
2017-06-20T07:47:04.136Z,29.70
2017-06-20T07:49:32.403Z,29.50
2017-06-20T07:52:00.653Z,29.70
2017-06-20T07:54:29.307Z,29.80
2017-06-20T07:56:57.592Z,29.80
2017-06-20T07:59:26.238Z,31.70
2017-06-20T08:01:54.514Z,31.70
2017-06-20T08:04:22.760Z,32.90
2017-06-20T08:06:51.097Z,33.50
2017-06-20T08:09:19.317Z,33.80
2017-06-20T08:11:47.685Z,34.20
2017-06-20T08:14:15.953Z,34.20
2017-06-20T08:16:44.223Z,34.70
2017-06-20T08:19:12.488Z,35.30
2017-06-20T08:22:00.463Z,35.60
2017-06-20T08:24:28.996Z,36.00
2017-06-20T08:26:57.211Z,36.10
2017-06-20T08:29:26.168Z,35.70
2017-06-20T08:31:54.542Z,35.70
2017-06-20T08:34:22.759Z,35.90
2017-06-20T08:36:50.992Z,36.60
2017-06-20T08:39:22.036Z,37.20
2017-06-20T08:41:50.521Z,36.50
2017-06-20T08:44:18.777Z,36.10
2017-06-20T08:46:47.046Z,35.90
2017-06-20T08:49:15.782Z,36.10
2017-06-20T08:51:43.977Z,36.10
2017-06-20T08:54:12.631Z,36.80
2017-06-20T08:56:40.904Z,37.00
2017-06-20T08:59:09.144Z,37.20
2017-06-20T09:01:37.413Z,37.60
2017-06-20T09:04:05.649Z,36.90
2017-06-20T09:06:34.476Z,36.20
2017-06-20T09:09:02.769Z,36.20
2017-06-20T09:11:31.017Z,36.20
2017-06-20T09:13:59.267Z,35.30
2017-06-20T09:16:27.723Z,35.00
2017-06-20T09:18:56.004Z,35.40
2017-06-20T09:21:24.244Z,35.80
2017-06-20T09:23:52.641Z,36.30
2017-06-20T09:26:20.954Z,36.20
2017-06-20T09:28:49.169Z,36.60
2017-06-20T09:31:17.448Z,36.50
2017-06-20T09:33:45.744Z,37.00
2017-06-20T09:36:13.972Z,37.60
2017-06-20T09:38:42.247Z,38.00
2017-06-20T09:41:10.856Z,38.20
2017-06-20T09:43:39.104Z,38.20
2017-06-20T09:46:07.840Z,37.30
2017-06-20T09:48:36.117Z,37.30
2017-06-20T09:51:04.393Z,37.20
2017-06-20T09:53:32.747Z,37.00
2017-06-20T09:56:01.004Z,36.90
2017-06-20T09:58:29.236Z,37.10
2017-06-20T10:00:57.512Z,37.10
2017-06-20T10:03:25.748Z,37.00
2017-06-20T10:05:54.263Z,37.50
2017-06-20T10:08:26.100Z,38.10
2017-06-20T10:10:54.902Z,37.70
2017-06-20T10:13:23.281Z,37.90
2017-06-20T10:15:51.539Z,37.90
2017-06-20T10:18:20.430Z,37.80
2017-06-20T10:20:48.664Z,37.40
2017-06-20T10:23:17.496Z,36.70
2017-06-20T10:25:46.000Z,36.40
2017-06-20T10:28:14.232Z,36.50
2017-06-20T10:30:42.517Z,37.00
2017-06-20T10:33:10.739Z,37.70
2017-06-20T10:35:38.970Z,38.00
2017-06-20T10:38:07.262Z,38.10
2017-06-20T10:40:35.503Z,37.40
2017-06-20T10:43:04.037Z,37.00
2017-06-20T10:45:33.019Z,36.10
2017-06-20T10:48:01.258Z,36.10
2017-06-20T10:50:29.488Z,36.70
2017-06-20T10:52:58.028Z,37.40
2017-06-20T10:55:26.296Z,37.40
2017-06-20T10:57:54.817Z,37.80
2017-06-20T11:00:23.088Z,38.30
2017-06-20T11:02:51.390Z,38.10
2017-06-20T11:05:19.723Z,38.30
2017-06-20T11:07:48.023Z,37.80
2017-06-20T11:10:16.610Z,37.60
2017-06-20T11:12:44.875Z,37.00
2017-06-20T11:15:13.356Z,37.10
2017-06-20T11:17:41.582Z,37.00
2017-06-20T11:20:10.124Z,37.20
2017-06-20T11:22:38.400Z,37.20
2017-06-20T11:25:06.670Z,37.30
2017-06-20T11:27:34.902Z,37.20
2017-06-20T11:30:03.157Z,37.40
2017-06-20T11:32:31.805Z,37.20
2017-06-20T11:35:00.047Z,37.20
2017-06-20T11:37:28.354Z,37.80
2017-06-20T11:39:56.590Z,38.20
2017-06-20T11:42:24.832Z,38.40
2017-06-20T11:44:53.524Z,37.10
2017-06-20T11:47:22.076Z,37.10
2017-06-20T11:49:50.319Z,36.50
2017-06-20T11:52:18.623Z,36.70
2017-06-20T11:54:46.842Z,36.90
2017-06-20T11:57:15.501Z,37.00
2017-06-20T11:59:43.772Z,37.00
2017-06-20T12:02:12.038Z,36.90
2017-06-20T12:04:40.268Z,37.30
2017-06-20T12:07:08.629Z,37.20
2017-06-20T12:09:37.241Z,36.10
2017-06-20T12:12:05.482Z,36.10
2017-06-20T12:14:35.579Z,35.80
2017-06-20T12:17:05.305Z,35.80
2017-06-20T12:19:33.567Z,35.60
2017-06-20T12:22:01.805Z,35.60
2017-06-20T12:24:30.039Z,35.50
2017-06-20T12:26:58.896Z,35.90
2017-06-20T12:29:27.164Z,35.90
2017-06-20T12:31:55.444Z,36.00
2017-06-20T12:34:23.722Z,36.20
2017-06-20T12:36:52.182Z,36.70
2017-06-20T12:39:20.444Z,37.00
2017-06-20T12:41:48.964Z,36.80
2017-06-20T12:44:17.245Z,36.50
2017-06-20T12:46:45.483Z,36.60
2017-06-20T12:49:13.751Z,37.00
2017-06-20T12:51:42.020Z,37.40
2017-06-20T12:54:10.283Z,37.70
2017-06-20T12:56:38.552Z,37.20
2017-06-20T12:59:07.187Z,37.20
2017-06-20T13:01:35.408Z,37.20
2017-06-20T13:04:03.809Z,37.10
2017-06-20T13:06:32.045Z,36.70
2017-06-20T13:09:00.294Z,36.80
2017-06-20T13:11:28.610Z,36.40
2017-06-20T13:13:57.239Z,36.20
2017-06-20T13:16:25.643Z,36.20
2017-06-20T13:18:54.007Z,36.60
2017-06-20T13:21:22.244Z,36.60
2017-06-20T13:23:50.528Z,36.20
2017-06-20T13:26:18.784Z,36.10
2017-06-20T13:28:47.425Z,36.10
2017-06-20T13:31:15.671Z,36.10
2017-06-20T13:33:43.950Z,36.00
2017-06-20T13:36:12.188Z,35.70
2017-06-20T13:38:40.828Z,35.70
2017-06-20T13:41:09.108Z,35.70
2017-06-20T13:43:37.335Z,35.90
2017-06-20T13:46:05.593Z,35.70
2017-06-20T13:48:33.948Z,35.40
2017-06-20T13:51:02.165Z,35.30
2017-06-20T13:53:30.414Z,35.30
2017-06-20T13:55:58.683Z,35.00
2017-06-20T13:58:26.921Z,34.90
2017-06-20T14:00:55.157Z,35.00
2017-06-20T14:03:23.455Z,34.80
2017-06-20T14:05:51.698Z,34.70
2017-06-20T14:08:19.925Z,34.60
2017-06-20T14:10:48.217Z,34.20
2017-06-20T14:13:16.479Z,34.20
2017-06-20T14:15:44.933Z,33.90
2017-06-20T14:18:13.209Z,34.00
2017-06-20T14:20:41.450Z,34.20
2017-06-20T14:23:09.786Z,34.10
2017-06-20T14:25:38.062Z,33.90
2017-06-20T14:28:06.312Z,34.00
2017-06-20T14:30:34.545Z,33.90
2017-06-20T14:33:02.808Z,34.00
2017-06-20T14:35:31.048Z,33.80
2017-06-20T14:37:59.334Z,33.70
2017-06-20T14:40:27.604Z,33.80
2017-06-20T14:42:55.870Z,34.00
2017-06-20T14:45:24.097Z,34.10
2017-06-20T14:47:52.474Z,34.30
2017-06-20T14:50:20.707Z,34.00
2017-06-20T14:52:49.256Z,33.80
2017-06-20T14:55:17.515Z,33.50
2017-06-20T14:57:45.762Z,33.50
2017-06-20T15:00:14.037Z,33.40
2017-06-20T15:02:42.351Z,33.50
2017-06-20T15:05:10.584Z,33.40
2017-06-20T15:07:38.845Z,33.30
2017-06-20T15:10:07.157Z,33.30
2017-06-20T15:12:35.390Z,33.10
2017-06-20T15:15:03.710Z,32.80
2017-06-20T15:17:32.031Z,33.10
2017-06-20T15:20:00.259Z,33.30
2017-06-20T15:22:28.833Z,32.90
2017-06-20T15:24:57.088Z,32.60
2017-06-20T15:27:25.408Z,32.20
2017-06-20T15:29:53.941Z,31.90
2017-06-20T15:32:22.217Z,32.10
2017-06-20T15:34:50.457Z,32.20
2017-06-20T15:37:18.701Z,32.00
2017-06-20T15:39:47.084Z,31.90
2017-06-20T15:42:16.168Z,31.80
2017-06-20T15:44:44.405Z,31.70
2017-06-20T15:47:12.687Z,31.70
2017-06-20T15:49:41.291Z,31.60
2017-06-20T15:52:09.558Z,31.30
2017-06-20T15:54:37.868Z,31.30
2017-06-20T15:57:06.125Z,31.40
2017-06-20T15:59:34.349Z,31.40
2017-06-20T16:02:02.671Z,31.40
2017-06-20T16:04:31.007Z,31.00
2017-06-20T16:06:59.644Z,30.70
2017-06-20T16:09:28.001Z,30.70
2017-06-20T16:11:56.252Z,30.90
2017-06-20T16:14:24.923Z,30.80
2017-06-20T16:16:53.423Z,30.80
2017-06-20T16:19:21.692Z,30.60
2017-06-20T16:21:49.967Z,30.50
2017-06-20T16:24:18.336Z,30.40
2017-06-20T16:26:46.586Z,30.30
2017-06-20T16:29:14.832Z,30.50
2017-06-20T16:31:43.122Z,30.20
2017-06-20T16:34:11.358Z,30.00
2017-06-20T16:36:39.596Z,30.20
2017-06-20T16:39:07.866Z,30.20
2017-06-20T16:41:36.105Z,30.20
2017-06-20T16:44:04.389Z,30.10
2017-06-20T16:46:33.124Z,30.20
2017-06-20T16:49:01.771Z,29.90
2017-06-20T16:51:30.036Z,29.90
2017-06-20T16:53:58.327Z,29.80
2017-06-20T16:56:26.567Z,29.70
2017-06-20T16:58:54.888Z,29.50
2017-06-20T17:01:23.150Z,29.60
2017-06-20T17:03:51.420Z,29.50
2017-06-20T17:06:19.673Z,29.40
2017-06-20T17:08:47.939Z,29.50
2017-06-20T17:11:16.171Z,29.30
2017-06-20T17:13:44.452Z,29.30
2017-06-20T17:16:13.229Z,29.20
2017-06-20T17:18:41.500Z,29.20
2017-06-20T17:21:09.747Z,29.20
2017-06-20T17:23:38.055Z,29.20
2017-06-20T17:26:06.293Z,29.30
2017-06-20T17:28:34.554Z,29.20
2017-06-20T17:31:02.864Z,29.30
2017-06-20T17:33:31.106Z,29.10
2017-06-20T17:35:59.767Z,28.90
2017-06-20T17:38:28.335Z,28.90
2017-06-20T17:40:56.564Z,28.80
2017-06-20T17:43:24.800Z,28.60
2017-06-20T17:45:53.072Z,28.60
2017-06-20T17:48:21.708Z,27.90
2017-06-20T17:50:49.940Z,27.80
2017-06-20T17:53:18.628Z,27.50
2017-06-20T17:55:46.870Z,27.60
2017-06-20T17:58:15.103Z,27.70
2017-06-20T18:00:43.529Z,28.00
2017-06-20T18:03:11.760Z,28.10
2017-06-20T18:05:39.988Z,27.80
2017-06-20T18:08:08.265Z,27.80
2017-06-20T18:10:36.504Z,27.90
2017-06-20T18:13:04.745Z,27.70
2017-06-20T18:15:33.300Z,27.90
2017-06-20T18:18:01.555Z,27.70
2017-06-20T18:20:29.789Z,27.50
2017-06-20T18:22:58.075Z,27.30
2017-06-20T18:25:26.309Z,27.30
2017-06-20T18:27:54.549Z,27.40
2017-06-20T18:30:22.820Z,27.40
2017-06-20T18:32:51.048Z,27.50
2017-06-20T18:35:19.684Z,27.40
2017-06-20T18:37:47.963Z,27.40
2017-06-20T18:40:16.243Z,27.50
2017-06-20T18:42:44.744Z,27.30
2017-06-20T18:45:13.027Z,27.30
2017-06-20T18:47:41.500Z,27.30
2017-06-20T18:50:09.995Z,27.20
2017-06-20T18:52:38.251Z,27.00
2017-06-20T18:55:06.480Z,27.10
2017-06-20T18:57:35.124Z,26.80
2017-06-20T19:00:03.457Z,26.80
2017-06-20T19:02:31.684Z,26.80
2017-06-20T19:04:59.916Z,26.60
2017-06-20T19:07:28.188Z,26.30
2017-06-20T19:09:56.425Z,26.00
2017-06-20T19:12:25.052Z,26.00
2017-06-20T19:14:53.449Z,26.00
2017-06-20T19:17:21.671Z,25.90
2017-06-20T19:19:49.899Z,25.80
2017-06-20T19:22:18.173Z,25.70
2017-06-20T19:24:46.421Z,25.80
2017-06-20T19:27:14.660Z,25.70
2017-06-20T19:29:43.341Z,25.30
2017-06-20T19:32:11.972Z,25.00
2017-06-20T19:34:40.487Z,25.00
2017-06-20T19:37:08.744Z,25.00
2017-06-20T19:39:37.239Z,24.80
2017-06-20T19:42:05.477Z,24.50
2017-06-20T19:44:34.105Z,24.30
2017-06-20T19:47:02.331Z,24.30
2017-06-20T19:49:30.584Z,24.40
2017-06-20T19:51:58.851Z,24.40
2017-06-20T19:54:27.487Z,24.50
2017-06-20T19:56:55.726Z,24.50
2017-06-20T19:59:24.272Z,24.70
2017-06-20T20:01:52.508Z,24.50
2017-06-20T20:04:20.735Z,24.60
2017-06-20T20:06:49.712Z,24.30
2017-06-20T20:09:17.992Z,24.30
2017-06-20T20:11:46.233Z,24.70
2017-06-20T20:14:14.596Z,24.80
2017-06-20T20:16:42.851Z,25.00
2017-06-20T20:19:11.484Z,24.90
2017-06-20T20:21:39.988Z,24.90
2017-06-20T20:24:08.242Z,25.00
2017-06-20T20:26:36.476Z,24.80
2017-06-20T20:29:04.776Z,24.80
2017-06-20T20:31:33.000Z,25.00
2017-06-20T20:34:01.232Z,24.80
2017-06-20T20:36:29.492Z,24.50
2017-06-20T20:38:58.016Z,24.10
2017-06-20T20:41:26.260Z,24.00
2017-06-20T20:43:54.541Z,24.10
2017-06-20T20:46:23.051Z,24.20
2017-06-20T20:48:51.832Z,24.30
2017-06-20T20:51:20.112Z,24.30
2017-06-20T20:53:48.343Z,24.20
2017-06-20T20:56:16.616Z,24.10
2017-06-20T20:58:44.909Z,24.10
2017-06-20T21:01:13.213Z,24.00
2017-06-20T21:03:41.452Z,24.10
2017-06-20T21:06:09.724Z,24.10
2017-06-20T21:08:37.988Z,24.00
2017-06-20T21:11:06.225Z,23.70
2017-06-20T21:13:34.507Z,23.80
2017-06-20T21:16:03.503Z,23.60
2017-06-20T21:18:31.753Z,23.60
2017-06-20T21:21:00.097Z,23.70
2017-06-20T21:23:28.462Z,23.70
2017-06-20T21:25:57.122Z,23.70
2017-06-20T21:28:25.485Z,23.70
2017-06-20T21:30:53.708Z,23.60
2017-06-20T21:33:21.935Z,23.70
2017-06-20T21:35:50.619Z,23.70
2017-06-20T21:38:18.908Z,23.60
2017-06-20T21:40:47.141Z,23.70
2017-06-20T21:43:15.448Z,23.70
2017-06-20T21:45:43.723Z,23.40
2017-06-20T21:48:12.752Z,23.30
2017-06-20T21:50:41.112Z,23.40
2017-06-20T21:53:09.345Z,23.60
2017-06-20T21:55:37.591Z,23.80
2017-06-20T21:58:05.864Z,24.00
2017-06-20T22:00:34.133Z,24.00
2017-06-20T22:03:02.395Z,24.20
2017-06-20T22:05:31.487Z,24.50
2017-06-20T22:08:00.052Z,24.50
2017-06-20T22:10:32.144Z,24.40
2017-06-20T22:13:00.375Z,24.50
2017-06-20T22:15:28.871Z,24.60
2017-06-20T22:17:57.127Z,24.70
2017-06-20T22:20:25.352Z,24.70
2017-06-20T22:22:53.592Z,24.70
2017-06-20T22:25:21.903Z,24.70
2017-06-20T22:27:50.115Z,24.70
2017-06-20T22:30:18.384Z,24.60
2017-06-20T22:32:46.658Z,24.40
2017-06-20T22:35:14.995Z,24.20
2017-06-20T22:37:43.316Z,24.10
2017-06-20T22:40:11.939Z,24.30
2017-06-20T22:42:40.173Z,24.30
2017-06-20T22:45:08.412Z,24.30
2017-06-20T22:47:37.072Z,24.50
2017-06-20T22:50:05.297Z,24.50
2017-06-20T22:52:33.537Z,24.50
2017-06-20T22:55:01.801Z,24.50
2017-06-20T22:57:30.055Z,24.60
2017-06-20T22:59:58.364Z,24.60
2017-06-20T23:02:26.941Z,24.60
2017-06-20T23:04:55.164Z,24.60
2017-06-20T23:07:23.402Z,24.50
2017-06-20T23:09:51.675Z,24.50
2017-06-20T23:12:20.311Z,24.10
2017-06-20T23:14:48.594Z,24.20
2017-06-20T23:17:16.856Z,24.30
2017-06-20T23:19:45.087Z,23.90
2017-06-20T23:22:13.340Z,23.90
2017-06-20T23:24:41.695Z,23.90
2017-06-20T23:27:10.572Z,23.90
2017-06-20T23:29:38.815Z,23.80
2017-06-20T23:32:07.513Z,23.60
2017-06-20T23:34:36.145Z,23.80
2017-06-20T23:37:04.372Z,23.80
2017-06-20T23:39:33.768Z,24.00
2017-06-20T23:42:02.423Z,24.00
2017-06-20T23:44:30.664Z,24.00
2017-06-20T23:46:58.921Z,23.90
2017-06-20T23:49:27.175Z,24.00
2017-06-20T23:51:55.430Z,24.10
2017-06-20T23:54:23.771Z,24.00
2017-06-20T23:56:52.053Z,23.70
2017-06-20T23:59:20.326Z,23.50
